sensor_id;sensor_type;location;lat;lon;timestamp;temperature;humidity
20560;DHT22;10438;51.454;6.718;2023-03-17T00:00:16;9.80;81.70
20560;DHT22;10438;51.454;6.718;2023-03-17T00:02:43;9.80;79.30
20560;DHT22;10438;51.454;6.718;2023-03-17T00:05:21;9.90;80.20
20560;DHT22;10438;51.454;6.718;2023-03-17T00:07:49;9.90;79.00
20560;DHT22;10438;51.454;6.718;2023-03-17T00:10:24;9.90;78.80
20560;DHT22;10438;51.454;6.718;2023-03-17T00:12:52;9.90;77.00
20560;DHT22;10438;51.454;6.718;2023-03-17T00:15:21;9.90;77.80
20560;DHT22;10438;51.454;6.718;2023-03-17T00:17:47;9.90;80.70
20560;DHT22;10438;51.454;6.718;2023-03-17T00:20:25;9.80;80.90
20560;DHT22;10438;51.454;6.718;2023-03-17T00:22:52;9.80;80.90
20560;DHT22;10438;51.454;6.718;2023-03-17T00:27:49;9.80;84.00
20560;DHT22;10438;51.454;6.718;2023-03-17T00:30:15;9.80;83.80
20560;DHT22;10438;51.454;6.718;2023-03-17T00:32:42;9.80;84.30
20560;DHT22;10438;51.454;6.718;2023-03-17T00:35:36;9.80;86.30
20560;DHT22;10438;51.454;6.718;2023-03-17T00:38:02;9.70;86.70
20560;DHT22;10438;51.454;6.718;2023-03-17T00:40:29;9.70;85.70
20560;DHT22;10438;51.454;6.718;2023-03-17T00:42:56;9.70;88.90
20560;DHT22;10438;51.454;6.718;2023-03-17T00:45:23;9.70;89.40
20560;DHT22;10438;51.454;6.718;2023-03-17T00:47:51;9.60;90.20
20560;DHT22;10438;51.454;6.718;2023-03-17T00:50:21;9.60;90.90
20560;DHT22;10438;51.454;6.718;2023-03-17T00:52:49;9.60;91.60
20560;DHT22;10438;51.454;6.718;2023-03-17T00:55:16;9.60;90.40
20560;DHT22;10438;51.454;6.718;2023-03-17T00:57:42;9.70;91.10
20560;DHT22;10438;51.454;6.718;2023-03-17T01:00:19;9.70;92.20
20560;DHT22;10438;51.454;6.718;2023-03-17T01:02:45;9.70;90.70
20560;DHT22;10438;51.454;6.718;2023-03-17T01:05:11;9.70;90.80
20560;DHT22;10438;51.454;6.718;2023-03-17T01:07:37;9.70;89.80
20560;DHT22;10438;51.454;6.718;2023-03-17T01:10:12;9.70;90.20
20560;DHT22;10438;51.454;6.718;2023-03-17T01:12:38;9.70;89.20
20560;DHT22;10438;51.454;6.718;2023-03-17T01:15:04;9.70;91.20
20560;DHT22;10438;51.454;6.718;2023-03-17T01:17:30;9.70;91.30
20560;DHT22;10438;51.454;6.718;2023-03-17T01:19:55;9.70;90.40
20560;DHT22;10438;51.454;6.718;2023-03-17T01:22:22;9.70;91.10
20560;DHT22;10438;51.454;6.718;2023-03-17T01:24:47;9.70;90.80
20560;DHT22;10438;51.454;6.718;2023-03-17T01:27:13;9.70;89.80
20560;DHT22;10438;51.454;6.718;2023-03-17T01:29:39;9.70;87.60
20560;DHT22;10438;51.454;6.718;2023-03-17T01:32:04;9.70;90.30
20560;DHT22;10438;51.454;6.718;2023-03-17T01:34:30;9.70;89.90
20560;DHT22;10438;51.454;6.718;2023-03-17T01:36:56;9.60;91.80
20560;DHT22;10438;51.454;6.718;2023-03-17T01:39:22;9.60;91.10
20560;DHT22;10438;51.454;6.718;2023-03-17T01:41:48;9.60;90.80
20560;DHT22;10438;51.454;6.718;2023-03-17T01:44:16;9.60;90.10
20560;DHT22;10438;51.454;6.718;2023-03-17T01:46:43;9.60;90.40
20560;DHT22;10438;51.454;6.718;2023-03-17T01:49:24;9.60;89.90
20560;DHT22;10438;51.454;6.718;2023-03-17T01:52:10;9.60;89.70
20560;DHT22;10438;51.454;6.718;2023-03-17T01:57:27;9.70;88.60
20560;DHT22;10438;51.454;6.718;2023-03-17T02:00:02;9.70;89.60
20560;DHT22;10438;51.454;6.718;2023-03-17T02:02:32;9.70;89.90
20560;DHT22;10438;51.454;6.718;2023-03-17T02:04:59;9.70;87.60
20560;DHT22;10438;51.454;6.718;2023-03-17T02:07:26;9.70;88.10
20560;DHT22;10438;51.454;6.718;2023-03-17T02:09:53;9.70;86.70
20560;DHT22;10438;51.454;6.718;2023-03-17T02:12:21;9.70;87.60
20560;DHT22;10438;51.454;6.718;2023-03-17T02:14:48;9.70;86.40
20560;DHT22;10438;51.454;6.718;2023-03-17T02:17:13;9.70;88.50
20560;DHT22;10438;51.454;6.718;2023-03-17T02:19:39;9.70;90.00
20560;DHT22;10438;51.454;6.718;2023-03-17T02:22:04;9.70;89.80
20560;DHT22;10438;51.454;6.718;2023-03-17T02:24:39;9.70;90.50
20560;DHT22;10438;51.454;6.718;2023-03-17T02:27:17;9.60;91.00
20560;DHT22;10438;51.454;6.718;2023-03-17T02:29:44;9.60;91.60
20560;DHT22;10438;51.454;6.718;2023-03-17T02:32:11;9.50;91.30
20560;DHT22;10438;51.454;6.718;2023-03-17T02:34:37;9.50;92.50
20560;DHT22;10438;51.454;6.718;2023-03-17T02:37:03;9.50;92.20
20560;DHT22;10438;51.454;6.718;2023-03-17T02:39:29;9.50;92.50
20560;DHT22;10438;51.454;6.718;2023-03-17T02:41:55;9.40;91.60
20560;DHT22;10438;51.454;6.718;2023-03-17T02:44:20;9.50;91.60
20560;DHT22;10438;51.454;6.718;2023-03-17T02:46:46;9.50;91.70
20560;DHT22;10438;51.454;6.718;2023-03-17T02:49:12;9.40;91.40
20560;DHT22;10438;51.454;6.718;2023-03-17T02:51:38;9.40;91.80
20560;DHT22;10438;51.454;6.718;2023-03-17T02:54:04;9.40;92.60
20560;DHT22;10438;51.454;6.718;2023-03-17T02:56:30;9.40;93.70
20560;DHT22;10438;51.454;6.718;2023-03-17T02:58:55;9.30;93.30
20560;DHT22;10438;51.454;6.718;2023-03-17T03:01:21;9.30;93.50
20560;DHT22;10438;51.454;6.718;2023-03-17T03:03:47;9.30;93.00
20560;DHT22;10438;51.454;6.718;2023-03-17T03:06:13;9.30;93.50
20560;DHT22;10438;51.454;6.718;2023-03-17T03:08:38;9.30;93.70
20560;DHT22;10438;51.454;6.718;2023-03-17T03:11:05;9.30;92.90
20560;DHT22;10438;51.454;6.718;2023-03-17T03:13:31;9.30;92.60
20560;DHT22;10438;51.454;6.718;2023-03-17T03:15:57;9.30;93.10
20560;DHT22;10438;51.454;6.718;2023-03-17T03:18:22;9.30;93.60
20560;DHT22;10438;51.454;6.718;2023-03-17T03:20:48;9.30;93.10
20560;DHT22;10438;51.454;6.718;2023-03-17T03:23:14;9.30;94.00
20560;DHT22;10438;51.454;6.718;2023-03-17T03:25:40;9.20;93.10
20560;DHT22;10438;51.454;6.718;2023-03-17T03:28:07;9.30;92.80
20560;DHT22;10438;51.454;6.718;2023-03-17T03:30:34;9.30;92.90
20560;DHT22;10438;51.454;6.718;2023-03-17T03:33:00;9.30;92.90
20560;DHT22;10438;51.454;6.718;2023-03-17T03:35:27;9.20;93.10
20560;DHT22;10438;51.454;6.718;2023-03-17T03:37:52;9.30;93.50
20560;DHT22;10438;51.454;6.718;2023-03-17T03:40:18;9.30;94.20
20560;DHT22;10438;51.454;6.718;2023-03-17T03:42:43;9.20;94.20
20560;DHT22;10438;51.454;6.718;2023-03-17T03:45:09;9.20;93.30
20560;DHT22;10438;51.454;6.718;2023-03-17T03:47:35;9.20;93.40
20560;DHT22;10438;51.454;6.718;2023-03-17T03:50:01;9.20;92.90
20560;DHT22;10438;51.454;6.718;2023-03-17T03:52:26;9.30;92.50
20560;DHT22;10438;51.454;6.718;2023-03-17T03:54:52;9.30;92.70
20560;DHT22;10438;51.454;6.718;2023-03-17T03:57:17;9.30;93.80
20560;DHT22;10438;51.454;6.718;2023-03-17T03:59:43;9.30;93.30
20560;DHT22;10438;51.454;6.718;2023-03-17T04:02:08;9.20;93.00
20560;DHT22;10438;51.454;6.718;2023-03-17T04:04:34;9.30;92.70
20560;DHT22;10438;51.454;6.718;2023-03-17T04:07:00;9.30;92.70
20560;DHT22;10438;51.454;6.718;2023-03-17T04:09:25;9.30;92.40
20560;DHT22;10438;51.454;6.718;2023-03-17T04:11:51;9.30;92.90
20560;DHT22;10438;51.454;6.718;2023-03-17T04:14:16;9.20;93.10
20560;DHT22;10438;51.454;6.718;2023-03-17T04:16:43;9.20;93.50
20560;DHT22;10438;51.454;6.718;2023-03-17T04:19:09;9.20;92.90
20560;DHT22;10438;51.454;6.718;2023-03-17T04:21:35;9.20;94.40
20560;DHT22;10438;51.454;6.718;2023-03-17T04:24:02;9.20;94.60
20560;DHT22;10438;51.454;6.718;2023-03-17T04:26:30;9.10;94.40
20560;DHT22;10438;51.454;6.718;2023-03-17T04:28:55;9.10;95.20
20560;DHT22;10438;51.454;6.718;2023-03-17T04:31:22;9.10;95.20
20560;DHT22;10438;51.454;6.718;2023-03-17T04:33:47;9.10;94.90
20560;DHT22;10438;51.454;6.718;2023-03-17T04:36:21;9.10;95.50
20560;DHT22;10438;51.454;6.718;2023-03-17T04:38:47;9.10;94.70
20560;DHT22;10438;51.454;6.718;2023-03-17T04:41:13;9.10;94.90
20560;DHT22;10438;51.454;6.718;2023-03-17T04:43:39;9.10;94.70
20560;DHT22;10438;51.454;6.718;2023-03-17T04:46:06;9.20;95.10
20560;DHT22;10438;51.454;6.718;2023-03-17T04:48:32;9.20;94.60
20560;DHT22;10438;51.454;6.718;2023-03-17T04:50:57;9.20;94.50
20560;DHT22;10438;51.454;6.718;2023-03-17T04:53:23;9.20;95.00
20560;DHT22;10438;51.454;6.718;2023-03-17T04:55:49;9.20;93.90
20560;DHT22;10438;51.454;6.718;2023-03-17T04:58:14;9.20;94.30
20560;DHT22;10438;51.454;6.718;2023-03-17T05:00:40;9.20;94.40
20560;DHT22;10438;51.454;6.718;2023-03-17T05:03:06;9.10;94.20
20560;DHT22;10438;51.454;6.718;2023-03-17T05:05:32;9.20;94.50
20560;DHT22;10438;51.454;6.718;2023-03-17T05:07:58;9.20;94.60
20560;DHT22;10438;51.454;6.718;2023-03-17T05:10:23;9.20;94.30
20560;DHT22;10438;51.454;6.718;2023-03-17T05:12:49;9.20;93.50
20560;DHT22;10438;51.454;6.718;2023-03-17T05:15:15;9.20;94.80
20560;DHT22;10438;51.454;6.718;2023-03-17T05:17:40;9.20;93.90
20560;DHT22;10438;51.454;6.718;2023-03-17T05:20:07;9.20;94.10
20560;DHT22;10438;51.454;6.718;2023-03-17T05:22:32;9.20;94.90
20560;DHT22;10438;51.454;6.718;2023-03-17T05:24:58;9.10;94.90
20560;DHT22;10438;51.454;6.718;2023-03-17T05:27:24;9.20;94.30
20560;DHT22;10438;51.454;6.718;2023-03-17T05:29:50;9.10;94.60
20560;DHT22;10438;51.454;6.718;2023-03-17T05:32:15;9.10;94.50
20560;DHT22;10438;51.454;6.718;2023-03-17T05:34:41;9.10;94.10
20560;DHT22;10438;51.454;6.718;2023-03-17T05:37:07;9.20;94.50
20560;DHT22;10438;51.454;6.718;2023-03-17T05:39:34;9.10;94.50
20560;DHT22;10438;51.454;6.718;2023-03-17T05:42:00;9.10;94.60
20560;DHT22;10438;51.454;6.718;2023-03-17T05:44:25;9.10;94.70
20560;DHT22;10438;51.454;6.718;2023-03-17T05:46:51;9.10;95.10
20560;DHT22;10438;51.454;6.718;2023-03-17T05:49:16;9.10;94.70
20560;DHT22;10438;51.454;6.718;2023-03-17T05:51:43;9.10;94.60
20560;DHT22;10438;51.454;6.718;2023-03-17T05:54:08;9.10;94.90
20560;DHT22;10438;51.454;6.718;2023-03-17T05:56:34;9.10;95.10
20560;DHT22;10438;51.454;6.718;2023-03-17T05:59:00;9.10;95.70
20560;DHT22;10438;51.454;6.718;2023-03-17T06:01:27;9.10;96.20
20560;DHT22;10438;51.454;6.718;2023-03-17T06:03:53;9.10;95.20
20560;DHT22;10438;51.454;6.718;2023-03-17T06:06:18;9.10;95.60
20560;DHT22;10438;51.454;6.718;2023-03-17T06:08:44;9.10;96.00
20560;DHT22;10438;51.454;6.718;2023-03-17T06:11:10;9.10;95.60
20560;DHT22;10438;51.454;6.718;2023-03-17T06:13:35;9.10;96.20
20560;DHT22;10438;51.454;6.718;2023-03-17T06:16:01;9.10;95.90
20560;DHT22;10438;51.454;6.718;2023-03-17T06:18:27;9.10;95.60
20560;DHT22;10438;51.454;6.718;2023-03-17T06:20:53;9.10;96.00
20560;DHT22;10438;51.454;6.718;2023-03-17T06:23:19;9.10;95.00
20560;DHT22;10438;51.454;6.718;2023-03-17T06:25:45;9.10;95.10
20560;DHT22;10438;51.454;6.718;2023-03-17T06:28:10;9.20;95.30
20560;DHT22;10438;51.454;6.718;2023-03-17T06:30:36;9.20;94.80
20560;DHT22;10438;51.454;6.718;2023-03-17T06:33:02;9.20;94.70
20560;DHT22;10438;51.454;6.718;2023-03-17T06:35:28;9.20;94.70
20560;DHT22;10438;51.454;6.718;2023-03-17T06:37:54;9.20;94.80
20560;DHT22;10438;51.454;6.718;2023-03-17T06:40:20;9.30;93.70
20560;DHT22;10438;51.454;6.718;2023-03-17T06:42:46;9.30;94.40
20560;DHT22;10438;51.454;6.718;2023-03-17T06:45:12;9.40;94.20
20560;DHT22;10438;51.454;6.718;2023-03-17T06:47:37;9.40;93.90
20560;DHT22;10438;51.454;6.718;2023-03-17T06:50:08;9.40;92.90
20560;DHT22;10438;51.454;6.718;2023-03-17T06:52:34;9.40;93.30
20560;DHT22;10438;51.454;6.718;2023-03-17T06:55:00;9.50;92.70
20560;DHT22;10438;51.454;6.718;2023-03-17T06:57:26;9.50;92.00
20560;DHT22;10438;51.454;6.718;2023-03-17T06:59:52;9.60;91.40
20560;DHT22;10438;51.454;6.718;2023-03-17T07:02:17;9.60;92.60
20560;DHT22;10438;51.454;6.718;2023-03-17T07:04:44;9.60;91.30
20560;DHT22;10438;51.454;6.718;2023-03-17T07:07:09;9.70;91.40
20560;DHT22;10438;51.454;6.718;2023-03-17T07:09:35;9.70;90.60
20560;DHT22;10438;51.454;6.718;2023-03-17T07:12:01;9.80;91.40
20560;DHT22;10438;51.454;6.718;2023-03-17T07:14:31;9.80;88.50
20560;DHT22;10438;51.454;6.718;2023-03-17T07:16:56;9.90;88.20
20560;DHT22;10438;51.454;6.718;2023-03-17T07:19:22;10.00;87.10
20560;DHT22;10438;51.454;6.718;2023-03-17T07:21:48;10.00;86.00
20560;DHT22;10438;51.454;6.718;2023-03-17T07:24:13;10.10;85.60
20560;DHT22;10438;51.454;6.718;2023-03-17T07:26:39;10.20;83.70
20560;DHT22;10438;51.454;6.718;2023-03-17T07:29:04;10.20;86.10
20560;DHT22;10438;51.454;6.718;2023-03-17T07:31:30;10.30;83.30
20560;DHT22;10438;51.454;6.718;2023-03-17T07:33:55;10.40;84.10
20560;DHT22;10438;51.454;6.718;2023-03-17T07:36:22;10.40;81.90
20560;DHT22;10438;51.454;6.718;2023-03-17T07:38:47;10.50;83.70
20560;DHT22;10438;51.454;6.718;2023-03-17T07:41:13;10.60;80.70
20560;DHT22;10438;51.454;6.718;2023-03-17T07:43:38;10.70;80.20
20560;DHT22;10438;51.454;6.718;2023-03-17T07:46:04;10.80;73.80
20560;DHT22;10438;51.454;6.718;2023-03-17T07:48:30;10.80;74.30
20560;DHT22;10438;51.454;6.718;2023-03-17T07:50:57;10.80;74.30
20560;DHT22;10438;51.454;6.718;2023-03-17T07:53:23;10.90;76.20
20560;DHT22;10438;51.454;6.718;2023-03-17T07:55:49;11.00;69.50
20560;DHT22;10438;51.454;6.718;2023-03-17T07:58:15;11.00;72.50
20560;DHT22;10438;51.454;6.718;2023-03-17T08:00:40;11.10;71.40
20560;DHT22;10438;51.454;6.718;2023-03-17T08:03:06;11.10;68.60
20560;DHT22;10438;51.454;6.718;2023-03-17T08:05:31;11.20;66.70
20560;DHT22;10438;51.454;6.718;2023-03-17T08:07:57;11.30;62.00
20560;DHT22;10438;51.454;6.718;2023-03-17T08:10:23;11.40;62.50
20560;DHT22;10438;51.454;6.718;2023-03-17T08:12:48;11.50;60.20
20560;DHT22;10438;51.454;6.718;2023-03-17T08:15:17;11.40;58.20
20560;DHT22;10438;51.454;6.718;2023-03-17T08:17:43;11.50;57.90
20560;DHT22;10438;51.454;6.718;2023-03-17T08:20:09;11.40;59.90
20560;DHT22;10438;51.454;6.718;2023-03-17T08:22:35;11.40;59.30
20560;DHT22;10438;51.454;6.718;2023-03-17T08:25:01;11.40;57.00
20560;DHT22;10438;51.454;6.718;2023-03-17T08:27:26;11.40;59.60
20560;DHT22;10438;51.454;6.718;2023-03-17T08:29:52;11.40;58.90
20560;DHT22;10438;51.454;6.718;2023-03-17T08:32:18;11.50;55.50
20560;DHT22;10438;51.454;6.718;2023-03-17T08:34:44;11.50;62.80
20560;DHT22;10438;51.454;6.718;2023-03-17T08:37:10;11.40;59.20
20560;DHT22;10438;51.454;6.718;2023-03-17T08:39:36;11.40;58.10
20560;DHT22;10438;51.454;6.718;2023-03-17T08:42:02;11.50;63.50
20560;DHT22;10438;51.454;6.718;2023-03-17T08:44:28;11.50;61.10
20560;DHT22;10438;51.454;6.718;2023-03-17T08:46:54;11.60;62.00
20560;DHT22;10438;51.454;6.718;2023-03-17T08:49:21;11.70;57.90
20560;DHT22;10438;51.454;6.718;2023-03-17T08:51:47;11.70;60.70
20560;DHT22;10438;51.454;6.718;2023-03-17T08:54:13;11.80;52.10
20560;DHT22;10438;51.454;6.718;2023-03-17T08:56:39;11.90;55.30
20560;DHT22;10438;51.454;6.718;2023-03-17T08:59:06;12.00;55.10
20560;DHT22;10438;51.454;6.718;2023-03-17T09:01:33;12.10;50.70
20560;DHT22;10438;51.454;6.718;2023-03-17T09:03:59;12.30;49.00
20560;DHT22;10438;51.454;6.718;2023-03-17T09:06:25;12.50;46.30
20560;DHT22;10438;51.454;6.718;2023-03-17T09:08:52;12.70;40.50
20560;DHT22;10438;51.454;6.718;2023-03-17T09:11:23;13.00;34.60
20560;DHT22;10438;51.454;6.718;2023-03-17T09:13:48;13.40;33.90
20560;DHT22;10438;51.454;6.718;2023-03-17T09:16:15;13.80;24.70
20560;DHT22;10438;51.454;6.718;2023-03-17T09:18:43;14.00;21.90
20560;DHT22;10438;51.454;6.718;2023-03-17T09:21:11;14.20;18.80
20560;DHT22;10438;51.454;6.718;2023-03-17T09:23:36;14.30;19.70
20560;DHT22;10438;51.454;6.718;2023-03-17T09:26:02;14.40;18.90
20560;DHT22;10438;51.454;6.718;2023-03-17T09:28:28;14.20;16.20
20560;DHT22;10438;51.454;6.718;2023-03-17T09:31:01;14.20;18.10
20560;DHT22;10438;51.454;6.718;2023-03-17T09:33:28;14.10;18.40
20560;DHT22;10438;51.454;6.718;2023-03-17T09:35:54;14.10;18.90
20560;DHT22;10438;51.454;6.718;2023-03-17T09:38:21;14.10;22.10
20560;DHT22;10438;51.454;6.718;2023-03-17T09:43:51;14.10;21.40
20560;DHT22;10438;51.454;6.718;2023-03-17T09:46:40;14.20;16.80
20560;DHT22;10438;51.454;6.718;2023-03-17T09:49:13;14.40;18.90
20560;DHT22;10438;51.454;6.718;2023-03-17T09:51:43;14.50;16.00
20560;DHT22;10438;51.454;6.718;2023-03-17T09:56:56;14.50;16.60
20560;DHT22;10438;51.454;6.718;2023-03-17T09:59:32;14.60;17.10
20560;DHT22;10438;51.454;6.718;2023-03-17T10:01:58;14.70;19.10
20560;DHT22;10438;51.454;6.718;2023-03-17T10:04:24;14.80;20.20
20560;DHT22;10438;51.454;6.718;2023-03-17T10:06:50;14.90;14.20
20560;DHT22;10438;51.454;6.718;2023-03-17T10:09:45;14.90;12.90
20560;DHT22;10438;51.454;6.718;2023-03-17T10:15:26;15.10;15.90
20560;DHT22;10438;51.454;6.718;2023-03-17T10:17:56;15.10;13.40
20560;DHT22;10438;51.454;6.718;2023-03-17T10:20:32;15.30;14.00
20560;DHT22;10438;51.454;6.718;2023-03-17T10:23:04;15.50;13.50
20560;DHT22;10438;51.454;6.718;2023-03-17T10:25:33;15.80;10.20
20560;DHT22;10438;51.454;6.718;2023-03-17T10:28:06;15.80;8.30
20560;DHT22;10438;51.454;6.718;2023-03-17T10:30:37;16.00;3.90
20560;DHT22;10438;51.454;6.718;2023-03-17T10:33:04;16.10;5.60
20560;DHT22;10438;51.454;6.718;2023-03-17T10:35:34;15.80;3.50
20560;DHT22;10438;51.454;6.718;2023-03-17T10:38:15;16.20;4.30
20560;DHT22;10438;51.454;6.718;2023-03-17T10:40:44;16.50;1.00
20560;DHT22;10438;51.454;6.718;2023-03-17T10:43:18;16.60;1.30
20560;DHT22;10438;51.454;6.718;2023-03-17T10:45:58;16.80;1.00
20560;DHT22;10438;51.454;6.718;2023-03-17T10:48:24;16.70;1.00
20560;DHT22;10438;51.454;6.718;2023-03-17T10:50:50;16.40;1.00
20560;DHT22;10438;51.454;6.718;2023-03-17T10:53:18;16.40;1.00
20560;DHT22;10438;51.454;6.718;2023-03-17T10:55:51;16.50;1.00
20560;DHT22;10438;51.454;6.718;2023-03-17T10:58:20;16.50;1.00
20560;DHT22;10438;51.454;6.718;2023-03-17T11:00:58;16.60;1.00
20560;DHT22;10438;51.454;6.718;2023-03-17T11:03:30;16.70;1.00
20560;DHT22;10438;51.454;6.718;2023-03-17T11:06:04;16.70;1.00
20560;DHT22;10438;51.454;6.718;2023-03-17T11:08:50;16.80;1.00
20560;DHT22;10438;51.454;6.718;2023-03-17T11:11:29;16.80;1.00
20560;DHT22;10438;51.454;6.718;2023-03-17T11:16:39;16.50;1.00
20560;DHT22;10438;51.454;6.718;2023-03-17T11:19:14;16.40;1.00
20560;DHT22;10438;51.454;6.718;2023-03-17T11:21:54;16.40;1.00
20560;DHT22;10438;51.454;6.718;2023-03-17T11:24:31;16.20;1.00
20560;DHT22;10438;51.454;6.718;2023-03-17T11:27:19;16.40;1.10
20560;DHT22;10438;51.454;6.718;2023-03-17T11:41:06;16.50;1.00
20560;DHT22;10438;51.454;6.718;2023-03-17T11:44:07;16.40;1.00
20560;DHT22;10438;51.454;6.718;2023-03-17T11:46:45;16.50;1.00
20560;DHT22;10438;51.454;6.718;2023-03-17T11:49:33;16.70;1.00
20560;DHT22;10438;51.454;6.718;2023-03-17T11:52:25;16.80;1.00
20560;DHT22;10438;51.454;6.718;2023-03-17T11:57:40;17.30;1.00
20560;DHT22;10438;51.454;6.718;2023-03-17T12:00:23;17.60;1.00
20560;DHT22;10438;51.454;6.718;2023-03-17T12:03:16;17.80;1.00
20560;DHT22;10438;51.454;6.718;2023-03-17T12:05:47;18.00;1.00
20560;DHT22;10438;51.454;6.718;2023-03-17T12:11:22;18.00;1.00
20560;DHT22;10438;51.454;6.718;2023-03-17T12:13:54;18.10;1.00
20560;DHT22;10438;51.454;6.718;2023-03-17T12:16:34;18.10;1.00
20560;DHT22;10438;51.454;6.718;2023-03-17T12:19:09;17.90;1.00
20560;DHT22;10438;51.454;6.718;2023-03-17T12:22:05;17.70;1.00
20560;DHT22;10438;51.454;6.718;2023-03-17T12:24:40;17.60;1.00
20560;DHT22;10438;51.454;6.718;2023-03-17T12:27:09;17.70;1.00
20560;DHT22;10438;51.454;6.718;2023-03-17T12:29:45;17.70;1.00
20560;DHT22;10438;51.454;6.718;2023-03-17T12:32:23;17.60;1.00
20560;DHT22;10438;51.454;6.718;2023-03-17T12:34:59;17.60;1.00
20560;DHT22;10438;51.454;6.718;2023-03-17T12:37:27;17.90;1.00
20560;DHT22;10438;51.454;6.718;2023-03-17T12:45:38;18.30;1.00
20560;DHT22;10438;51.454;6.718;2023-03-17T12:51:13;18.20;1.00
20560;DHT22;10438;51.454;6.718;2023-03-17T12:53:45;18.10;1.00
20560;DHT22;10438;51.454;6.718;2023-03-17T12:56:20;17.90;1.00
20560;DHT22;10438;51.454;6.718;2023-03-17T12:58:51;17.90;1.00
20560;DHT22;10438;51.454;6.718;2023-03-17T13:01:38;17.80;1.00
20560;DHT22;10438;51.454;6.718;2023-03-17T13:04:27;17.80;1.00
20560;DHT22;10438;51.454;6.718;2023-03-17T13:07:14;17.70;1.00
20560;DHT22;10438;51.454;6.718;2023-03-17T13:10:19;17.80;1.00
20560;DHT22;10438;51.454;6.718;2023-03-17T13:26:18;17.60;1.00
20560;DHT22;10438;51.454;6.718;2023-03-17T13:28:47;17.50;1.00
20560;DHT22;10438;51.454;6.718;2023-03-17T13:33:53;17.50;1.00
20560;DHT22;10438;51.454;6.718;2023-03-17T13:36:32;17.50;1.00
20560;DHT22;10438;51.454;6.718;2023-03-17T13:39:26;17.50;1.00
20560;DHT22;10438;51.454;6.718;2023-03-17T13:47:36;17.60;1.00
20560;DHT22;10438;51.454;6.718;2023-03-17T13:50:14;17.50;1.00
20560;DHT22;10438;51.454;6.718;2023-03-17T13:57:42;17.40;1.00
20560;DHT22;10438;51.454;6.718;2023-03-17T14:00:24;17.30;1.00
20560;DHT22;10438;51.454;6.718;2023-03-17T14:03:01;17.20;1.00
20560;DHT22;10438;51.454;6.718;2023-03-17T14:05:30;17.30;1.00
20560;DHT22;10438;51.454;6.718;2023-03-17T14:08:04;17.30;1.00
20560;DHT22;10438;51.454;6.718;2023-03-17T14:10:33;17.30;1.00
20560;DHT22;10438;51.454;6.718;2023-03-17T14:13:38;17.20;1.00
20560;DHT22;10438;51.454;6.718;2023-03-17T14:16:21;17.20;1.00
20560;DHT22;10438;51.454;6.718;2023-03-17T14:18:53;17.20;1.00
20560;DHT22;10438;51.454;6.718;2023-03-17T14:21:28;17.30;1.00
20560;DHT22;10438;51.454;6.718;2023-03-17T14:23:55;17.20;1.00
20560;DHT22;10438;51.454;6.718;2023-03-17T14:26:23;17.30;1.00
20560;DHT22;10438;51.454;6.718;2023-03-17T14:28:49;17.40;1.00
20560;DHT22;10438;51.454;6.718;2023-03-17T14:31:26;17.40;1.00
20560;DHT22;10438;51.454;6.718;2023-03-17T14:33:57;17.50;1.00
20560;DHT22;10438;51.454;6.718;2023-03-17T14:36:24;17.60;1.00
20560;DHT22;10438;51.454;6.718;2023-03-17T14:38:53;17.80;1.00
20560;DHT22;10438;51.454;6.718;2023-03-17T14:41:24;17.90;1.00
20560;DHT22;10438;51.454;6.718;2023-03-17T14:43:51;17.90;1.00
20560;DHT22;10438;51.454;6.718;2023-03-17T14:46:36;18.00;1.00
20560;DHT22;10438;51.454;6.718;2023-03-17T14:49:22;18.10;1.00
20560;DHT22;10438;51.454;6.718;2023-03-17T14:51:50;18.40;1.00
20560;DHT22;10438;51.454;6.718;2023-03-17T14:54:20;18.40;1.00
20560;DHT22;10438;51.454;6.718;2023-03-17T14:56:51;18.40;1.00
20560;DHT22;10438;51.454;6.718;2023-03-17T14:59:19;18.20;1.00
20560;DHT22;10438;51.454;6.718;2023-03-17T15:01:46;18.00;1.00
20560;DHT22;10438;51.454;6.718;2023-03-17T15:04:21;17.80;1.00
20560;DHT22;10438;51.454;6.718;2023-03-17T15:06:48;17.70;1.00
20560;DHT22;10438;51.454;6.718;2023-03-17T15:09:39;17.60;1.00
20560;DHT22;10438;51.454;6.718;2023-03-17T15:12:23;17.70;1.00
20560;DHT22;10438;51.454;6.718;2023-03-17T15:14:52;17.70;1.00
20560;DHT22;10438;51.454;6.718;2023-03-17T15:17:20;17.80;1.00
20560;DHT22;10438;51.454;6.718;2023-03-17T15:19:52;17.70;1.00
20560;DHT22;10438;51.454;6.718;2023-03-17T15:22:40;17.70;1.00
20560;DHT22;10438;51.454;6.718;2023-03-17T15:25:19;17.60;1.00
20560;DHT22;10438;51.454;6.718;2023-03-17T15:27:48;17.40;1.00
20560;DHT22;10438;51.454;6.718;2023-03-17T15:30:16;17.30;1.00
20560;DHT22;10438;51.454;6.718;2023-03-17T15:32:42;17.20;1.30
20560;DHT22;10438;51.454;6.718;2023-03-17T15:35:11;17.10;1.50
20560;DHT22;10438;51.454;6.718;2023-03-17T15:37:37;17.10;1.70
20560;DHT22;10438;51.454;6.718;2023-03-17T15:40:03;17.00;3.30
20560;DHT22;10438;51.454;6.718;2023-03-17T15:42:34;17.00;4.20
20560;DHT22;10438;51.454;6.718;2023-03-17T15:45:01;17.00;4.70
20560;DHT22;10438;51.454;6.718;2023-03-17T15:47:30;16.90;3.90
20560;DHT22;10438;51.454;6.718;2023-03-17T15:50:00;17.00;4.80
20560;DHT22;10438;51.454;6.718;2023-03-17T15:52:28;16.90;2.30
20560;DHT22;10438;51.454;6.718;2023-03-17T15:54:55;16.90;2.30
20560;DHT22;10438;51.454;6.718;2023-03-17T15:57:22;16.90;2.70
20560;DHT22;10438;51.454;6.718;2023-03-17T15:59:47;16.90;3.70
20560;DHT22;10438;51.454;6.718;2023-03-17T16:04:51;16.70;4.80
20560;DHT22;10438;51.454;6.718;2023-03-17T16:07:17;16.70;4.90
20560;DHT22;10438;51.454;6.718;2023-03-17T16:09:43;16.70;5.90
20560;DHT22;10438;51.454;6.718;2023-03-17T16:12:10;16.70;6.50
20560;DHT22;10438;51.454;6.718;2023-03-17T16:14:36;16.60;7.80
20560;DHT22;10438;51.454;6.718;2023-03-17T16:17:03;16.60;6.20
20560;DHT22;10438;51.454;6.718;2023-03-17T16:19:28;16.50;8.80
20560;DHT22;10438;51.454;6.718;2023-03-17T16:21:55;16.50;8.70
20560;DHT22;10438;51.454;6.718;2023-03-17T16:24:23;16.50;10.10
20560;DHT22;10438;51.454;6.718;2023-03-17T16:26:50;16.40;10.90
20560;DHT22;10438;51.454;6.718;2023-03-17T16:29:17;16.40;11.70
20560;DHT22;10438;51.454;6.718;2023-03-17T16:31:46;16.40;12.90
20560;DHT22;10438;51.454;6.718;2023-03-17T16:34:18;16.30;10.30
20560;DHT22;10438;51.454;6.718;2023-03-17T16:36:44;16.30;11.10
20560;DHT22;10438;51.454;6.718;2023-03-17T16:39:18;16.30;10.20
20560;DHT22;10438;51.454;6.718;2023-03-17T16:41:48;16.20;10.30
20560;DHT22;10438;51.454;6.718;2023-03-17T16:44:15;16.20;9.40
20560;DHT22;10438;51.454;6.718;2023-03-17T16:46:41;16.10;10.30
20560;DHT22;10438;51.454;6.718;2023-03-17T16:49:15;16.10;11.60
20560;DHT22;10438;51.454;6.718;2023-03-17T16:51:42;16.00;11.10
20560;DHT22;10438;51.454;6.718;2023-03-17T16:54:08;15.90;12.00
20560;DHT22;10438;51.454;6.718;2023-03-17T16:56:34;15.90;11.60
20560;DHT22;10438;51.454;6.718;2023-03-17T16:59:00;15.90;11.60
20560;DHT22;10438;51.454;6.718;2023-03-17T17:01:27;15.90;11.90
20560;DHT22;10438;51.454;6.718;2023-03-17T17:03:53;15.80;13.70
20560;DHT22;10438;51.454;6.718;2023-03-17T17:06:20;15.70;13.50